Catalina Express — WCJ6210 — position and weather

sailwx.info

Track history (hours):
 
Tides and Currents Weather Stations Pressure Air Temp Water Temp Dewpoint Dewpoint Depression Visibility Wind Speed Wind Dir Waves Ship Positions

Catalina Express

Owner: RGWT INC, Long Beach, CA. More information available from US FCC via Universal Licensing System and Coast Guard Vessel Documentation Center.

Last reported at 2017-Oct-19 01:55 UTC. Time now 2017-Oct-19 23:54 UTC.
Position N 33°27' W 117°43'.

; draft 1.1 m.

Type: High speed craft. MMSI: 366943960.

Date/timePositionNaut miles runAvg speedWind from/ knotsBaromVisibWave heightAir tempDewpointWater temp
2017-Oct-19 01:55N 33°27' W 117°43'1125.5
2017-Oct-19 01:31N 33°24' W 117°55'1325.6
2017-Oct-19 01:01N 33°22' W 118°10'815.1
2017-Oct-19 00:30N 33°21' W 118°19'0 0.0
2017-Oct-19 00:00N 33°21' W 118°19'918.7
2017-Oct-18 23:31N 33°27' W 118°28'1 1.8
2017-Oct-18 23:01N 33°28' W 118°28'1426.8
2017-Oct-18 22:30N 33°38' W 118°18'713.6
2017-Oct-18 22:00N 33°45' W 118°16'0 0.0
2017-Oct-18 21:30N 33°45' W 118°16'0 0.0
2017-Oct-18 21:00N 33°45' W 118°16'0 0.0
2017-Oct-18 20:30N 33°45' W 118°16'0 0.0
2017-Oct-18 20:00N 33°45' W 118°16'0 0.0
2017-Oct-18 19:30N 33°45' W 118°16'5 9.8
2017-Oct-18 19:00N 33°40' W 118°16'18 8.5
2017-Oct-18 16:52N 33°22' W 118°19'23 7.8
2017-Oct-18 13:54N 33°45' W 118°16'0 0.0
2017-Oct-18 13:30N 33°45' W 118°16'0 0.0
2017-Oct-18 13:00N 33°45' W 118°16'11 0.9
2017-Oct-18 01:02N 33°34' W 118°16'227.0
2017-Oct-18 00:58N 33°32' W 118°17'10 6.5
2017-Oct-17 23:30N 33°26' W 118°25'4 8.2
2017-Oct-17 23:00N 33°27' W 118°30'1425.0
2017-Oct-17 22:27N 33°37' W 118°19'8 1.7
2017-Oct-17 17:44N 33°45' W 118°16'0 0.0
2017-Oct-17 17:16N 33°45' W 118°16'0 0.0
2017-Oct-17 14:13N 33°45' W 118°16'0 0.0
2017-Oct-17 13:58N 33°45' W 118°16'0 0.0
2017-Oct-17 13:28N 33°45' W 118°16'0 0.1
2017-Oct-17 12:57N 33°45' W 118°16'5 0.1
2017-Oct-15 22:46N 33°40' W 118°15'726.3
2017-Oct-15 22:30N 33°33' W 118°17'12 2.2
2017-Oct-15 16:43N 33°45' W 118°16'0 0.0
2017-Oct-15 13:01N 33°45' W 118°16'0 3.1
2017-Oct-15 13:00N 33°45' W 118°16'0 0.0
2017-Oct-14 19:41N 33°45' W 118°16'0 2.8
2017-Oct-14 19:30N 33°45' W 118°17'613.1
2017-Oct-14 19:01N 33°38' W 118°15'1325.9
2017-Oct-14 18:31N 33°25' W 118°18'5 9.1
2017-Oct-14 17:59N 33°21' W 118°19'0 0.0
2017-Oct-14 17:30N 33°21' W 118°19'0 0.0
2017-Oct-14 17:00N 33°21' W 118°19'0 0.0
2017-Oct-14 16:30N 33°21' W 118°19'917.9
2017-Oct-14 16:01N 33°23' W 118°09'1325.6
2017-Oct-14 15:30N 33°26' W 117°54'917.9
2017-Oct-14 15:00N 33°27' W 117°43'2 3.4
2017-Oct-14 14:30N 33°28' W 117°42'0 0.0
2017-Oct-14 14:00N 33°28' W 117°42'0 0.1
2017-Oct-14 13:30N 33°28' W 117°41'0 0.0
2017-Oct-14 04:12N 33°28' W 117°42'0 0.0
2017-Oct-14 04:00N 33°28' W 117°42'0 0.0
2017-Oct-14 03:30N 33°28' W 117°42'0 1.0
2017-Oct-14 03:01N 33°27' W 117°41'1427.4
2017-Oct-14 02:31N 33°26' W 117°58'1627.2
2017-Oct-14 01:56N 33°22' W 118°16'3 7.3
2017-Oct-14 01:30N 33°21' W 118°19'913.2
2017-Oct-14 00:48N 33°22' W 118°08'827.2
2017-Oct-14 00:30N 33°24' W 117°59'1122.0
2017-Oct-14 00:01N 33°26' W 117°46'4 8.3
2017-Oct-13 23:31N 33°28' W 117°42'0 0.0
2017-Oct-13 23:01N 33°28' W 117°42'0 0.0
2017-Oct-13 22:30N 33°28' W 117°42'510.7
2017-Oct-13 22:01N 33°26' W 117°48'1427.4
2017-Oct-13 21:30N 33°23' W 118°04'1326.6
2017-Oct-13 21:00N 33°21' W 118°19'0 0.1
2017-Oct-13 20:24N 33°21' W 118°19'923.1
2017-Oct-13 20:00N 33°22' W 118°08'1326.4
2017-Oct-13 19:31N 33°25' W 117°53'1019.8
2017-Oct-13 19:01N 33°27' W 117°41'0 0.7
2017-Oct-13 18:30N 33°28' W 117°42'0 0.8
2017-Oct-13 18:01N 33°27' W 117°42'1428.0
2017-Oct-13 17:31N 33°24' W 117°58'1428.1
2017-Oct-13 17:00N 33°22' W 118°15'4 6.7
2017-Oct-13 16:23N 33°21' W 118°19'2 5.5
2017-Oct-13 16:00N 33°21' W 118°17'1326.7
2017-Oct-13 15:30N 33°24' W 118°01'1326.3
2017-Oct-13 15:01N 33°26' W 117°46'4 7.6
2017-Oct-13 14:30N 33°28' W 117°42'0 0.0
2017-Oct-13 14:00N 33°28' W 117°42'0 0.1
2017-Oct-13 13:30N 33°28' W 117°41'0 0.0
2017-Oct-13 02:33N 33°28' W 117°42'0 0.0
2017-Oct-13 02:30N 33°28' W 117°42'0 0.0
2017-Oct-13 02:00N 33°28' W 117°42'1019.7
2017-Oct-13 01:31N 33°25' W 117°53'1427.2
2017-Oct-13 01:01N 33°23' W 118°09'9 6.1
2017-Oct-12 23:31N 33°21' W 118°20'0 0.3
2017-Oct-12 23:21N 33°21' W 118°20'0 0.1
2017-Oct-12 22:58N 33°21' W 118°20'0 0.0
2017-Oct-12 22:12N 33°21' W 118°20'0 0.0
2017-Oct-12 21:50N 33°21' W 118°20'0 0.0
2017-Oct-12 20:35N 33°21' W 118°20'0 0.0
2017-Oct-12 20:24N 33°21' W 118°20'0 0.0
2017-Oct-12 19:54N 33°21' W 118°20'0 0.0
2017-Oct-12 19:30N 33°21' W 118°20'1 0.6
2017-Oct-12 18:15N 33°21' W 118°19'621.9
2017-Oct-12 17:59N 33°22' W 118°12'1225.7
2017-Oct-12 17:31N 33°24' W 117°58'1325.9
2017-Oct-12 17:01N 33°27' W 117°42'1 0.1
2017-Oct-12 02:57N 33°28' W 117°42'0 0.0
2017-Oct-12 02:30N 33°28' W 117°42'0 0.0
2017-Oct-12 02:00N 33°28' W 117°42'1020.8
2017-Oct-12 01:31N 33°25' W 117°54'1426.7
2017-Oct-12 01:00N 33°22' W 118°09'816.6
2017-Oct-12 00:30N 33°21' W 118°19'1 1.6
2017-Oct-12 00:00N 33°21' W 118°20'0 0.0
2017-Oct-11 23:30N 33°21' W 118°20'0 0.0
2017-Oct-11 22:51N 33°21' W 118°20'0 0.1
2017-Oct-11 22:30N 33°21' W 118°20'0 0.0
2017-Oct-11 22:00N 33°21' W 118°20'0 0.0
2017-Oct-11 21:29N 33°21' W 118°20'0 0.0
2017-Oct-11 21:00N 33°21' W 118°20'0 0.0
2017-Oct-11 20:29N 33°21' W 118°20'0 0.0
2017-Oct-11 20:01N 33°21' W 118°20'0 0.0
2017-Oct-11 19:30N 33°21' W 118°20'0 0.1
2017-Oct-11 18:59N 33°21' W 118°20'1 1.4
2017-Oct-11 18:26N 33°21' W 118°19'2 5.4
2017-Oct-11 17:59N 33°21' W 118°17'1326.6
2017-Oct-11 17:30N 33°24' W 118°02'1326.4
2017-Oct-11 17:01N 33°26' W 117°46'28 1.7
2017-Oct-11 00:00N 33°21' W 118°19'1 1.2
2017-Oct-10 23:30N 33°21' W 118°20'0 0.0
2017-Oct-10 18:40N 33°21' W 118°20'1 3.9
2017-Oct-10 18:30N 33°21' W 118°19'2 4.4
2017-Oct-10 18:01N 33°21' W 118°17'1326.0
2017-Oct-10 17:31N 33°24' W 118°02'1325.9
2017-Oct-10 17:00N 33°26' W 117°46'4 8.4
2017-Oct-10 16:30N 33°28' W 117°42'0 0.0
2017-Oct-10 02:18N 33°28' W 117°42'2 6.2
2017-Oct-10 02:00N 33°27' W 117°43'1021.0
2017-Oct-10 01:31N 33°25' W 117°56'1325.5
2017-Oct-10 01:00N 33°22' W 118°11'714.6
2017-Oct-10 00:31N 33°21' W 118°19'1 1.1
2017-Oct-10 00:00N 33°21' W 118°19'1427.1
2017-Oct-09 23:31N 33°23' W 118°03'1426.9
2017-Oct-09 23:00N 33°26' W 117°47'5 9.5
2017-Oct-09 22:30N 33°28' W 117°42'0 0.0
2017-Oct-09 22:00N 33°28' W 117°42'0 0.0
2017-Oct-09 21:30N 33°28' W 117°42'0 0.0
2017-Oct-09 21:00N 33°28' W 117°42'0 0.0
2017-Oct-09 20:30N 33°28' W 117°42'2 3.7
2017-Oct-09 20:01N 33°27' W 117°44'1326.8
2017-Oct-09 19:31N 33°24' W 117°59'1426.7
2017-Oct-09 18:59N 33°21' W 118°16'3 5.4
2017-Oct-09 18:25N 33°21' W 118°19'3 6.4
2017-Oct-09 17:56N 33°21' W 118°16'1226.6
2017-Oct-09 17:30N 33°24' W 118°02'1326.7
2017-Oct-09 17:00N 33°26' W 117°47'4 8.9
2017-Oct-09 16:30N 33°28' W 117°42'0 0.0
2017-Oct-09 16:00N 33°28' W 117°42'0 0.1
2017-Oct-09 15:30N 33°28' W 117°41'0 0.1
2017-Oct-09 15:00N 33°28' W 117°42'0 0.0
2017-Oct-09 03:34N 33°28' W 117°42'0 0.0
2017-Oct-09 03:31N 33°28' W 117°42'0 0.9
2017-Oct-09 03:01N 33°27' W 117°41'1325.4
2017-Oct-09 02:31N 33°24' W 117°56'1326.8
2017-Oct-09 02:00N 33°22' W 118°12'  
Track history (hours):
 
Tides and Currents Weather Stations Pressure Air Temp Water Temp Dewpoint Dewpoint Depression Visibility Wind Speed Wind Dir Waves Ship Positions

Catalina Express

Owner: RGWT INC, Long Beach, CA. More information available from US FCC via Universal Licensing System and Coast Guard Vessel Documentation Center.

Last reported at 2017-Oct-19 01:55 UTC. Time now 2017-Oct-19 23:54 UTC.
Position N 33°27' W 117°43'.

; draft 1.1 m.

Type: High speed craft. MMSI: 366943960.

Date/timePositionNaut miles runAvg speedWind from/ knotsBaromVisibWave heightAir tempDewpointWater temp
2017-Oct-19 01:55N 33°27' W 117°43'1125.5
2017-Oct-19 01:31N 33°24' W 117°55'1325.6
2017-Oct-19 01:01N 33°22' W 118°10'815.1
2017-Oct-19 00:30N 33°21' W 118°19'0 0.0
2017-Oct-19 00:00N 33°21' W 118°19'918.7
2017-Oct-18 23:31N 33°27' W 118°28'1 1.8
2017-Oct-18 23:01N 33°28' W 118°28'1426.8
2017-Oct-18 22:30N 33°38' W 118°18'713.6
2017-Oct-18 22:00N 33°45' W 118°16'0 0.0
2017-Oct-18 21:30N 33°45' W 118°16'0 0.0
2017-Oct-18 21:00N 33°45' W 118°16'0 0.0
2017-Oct-18 20:30N 33°45' W 118°16'0 0.0
2017-Oct-18 20:00N 33°45' W 118°16'0 0.0
2017-Oct-18 19:30N 33°45' W 118°16'5 9.8
2017-Oct-18 19:00N 33°40' W 118°16'18 8.5
2017-Oct-18 16:52N 33°22' W 118°19'23 7.8
2017-Oct-18 13:54N 33°45' W 118°16'0 0.0
2017-Oct-18 13:30N 33°45' W 118°16'0 0.0
2017-Oct-18 13:00N 33°45' W 118°16'11 0.9
2017-Oct-18 01:02N 33°34' W 118°16'227.0
2017-Oct-18 00:58N 33°32' W 118°17'10 6.5
2017-Oct-17 23:30N 33°26' W 118°25'4 8.2
2017-Oct-17 23:00N 33°27' W 118°30'1425.0
2017-Oct-17 22:27N 33°37' W 118°19'8 1.7
2017-Oct-17 17:44N 33°45' W 118°16'0 0.0
2017-Oct-17 17:16N 33°45' W 118°16'0 0.0
2017-Oct-17 14:13N 33°45' W 118°16'0 0.0
2017-Oct-17 13:58N 33°45' W 118°16'0 0.0
2017-Oct-17 13:28N 33°45' W 118°16'0 0.1
2017-Oct-17 12:57N 33°45' W 118°16'5 0.1
2017-Oct-15 22:46N 33°40' W 118°15'726.3
2017-Oct-15 22:30N 33°33' W 118°17'12 2.2
2017-Oct-15 16:43N 33°45' W 118°16'0 0.0
2017-Oct-15 13:01N 33°45' W 118°16'0 3.1
2017-Oct-15 13:00N 33°45' W 118°16'0 0.0
2017-Oct-14 19:41N 33°45' W 118°16'0 2.8
2017-Oct-14 19:30N 33°45' W 118°17'613.1
2017-Oct-14 19:01N 33°38' W 118°15'1325.9
2017-Oct-14 18:31N 33°25' W 118°18'5 9.1
2017-Oct-14 17:59N 33°21' W 118°19'0 0.0
2017-Oct-14 17:30N 33°21' W 118°19'0 0.0
2017-Oct-14 17:00N 33°21' W 118°19'0 0.0
2017-Oct-14 16:30N 33°21' W 118°19'917.9
2017-Oct-14 16:01N 33°23' W 118°09'1325.6
2017-Oct-14 15:30N 33°26' W 117°54'917.9
2017-Oct-14 15:00N 33°27' W 117°43'2 3.4
2017-Oct-14 14:30N 33°28' W 117°42'0 0.0
2017-Oct-14 14:00N 33°28' W 117°42'0 0.1
2017-Oct-14 13:30N 33°28' W 117°41'0 0.0
2017-Oct-14 04:12N 33°28' W 117°42'0 0.0
2017-Oct-14 04:00N 33°28' W 117°42'0 0.0
2017-Oct-14 03:30N 33°28' W 117°42'0 1.0
2017-Oct-14 03:01N 33°27' W 117°41'1427.4
2017-Oct-14 02:31N 33°26' W 117°58'1627.2
2017-Oct-14 01:56N 33°22' W 118°16'3 7.3
2017-Oct-14 01:30N 33°21' W 118°19'913.2
2017-Oct-14 00:48N 33°22' W 118°08'827.2
2017-Oct-14 00:30N 33°24' W 117°59'1122.0
2017-Oct-14 00:01N 33°26' W 117°46'4 8.3
2017-Oct-13 23:31N 33°28' W 117°42'0 0.0
2017-Oct-13 23:01N 33°28' W 117°42'0 0.0
2017-Oct-13 22:30N 33°28' W 117°42'510.7
2017-Oct-13 22:01N 33°26' W 117°48'1427.4
2017-Oct-13 21:30N 33°23' W 118°04'1326.6
2017-Oct-13 21:00N 33°21' W 118°19'0 0.1
2017-Oct-13 20:24N 33°21' W 118°19'923.1
2017-Oct-13 20:00N 33°22' W 118°08'1326.4
2017-Oct-13 19:31N 33°25' W 117°53'1019.8
2017-Oct-13 19:01N 33°27' W 117°41'0 0.7
2017-Oct-13 18:30N 33°28' W 117°42'0 0.8
2017-Oct-13 18:01N 33°27' W 117°42'1428.0
2017-Oct-13 17:31N 33°24' W 117°58'1428.1
2017-Oct-13 17:00N 33°22' W 118°15'4 6.7
2017-Oct-13 16:23N 33°21' W 118°19'2 5.5
2017-Oct-13 16:00N 33°21' W 118°17'1326.7
2017-Oct-13 15:30N 33°24' W 118°01'1326.3
2017-Oct-13 15:01N 33°26' W 117°46'4 7.6
2017-Oct-13 14:30N 33°28' W 117°42'0 0.0
2017-Oct-13 14:00N 33°28' W 117°42'0 0.1
2017-Oct-13 13:30N 33°28' W 117°41'0 0.0
2017-Oct-13 02:33N 33°28' W 117°42'0 0.0
2017-Oct-13 02:30N 33°28' W 117°42'0 0.0
2017-Oct-13 02:00N 33°28' W 117°42'1019.7
2017-Oct-13 01:31N 33°25' W 117°53'1427.2
2017-Oct-13 01:01N 33°23' W 118°09'9 6.1
2017-Oct-12 23:31N 33°21' W 118°20'0 0.3
2017-Oct-12 23:21N 33°21' W 118°20'0 0.1
2017-Oct-12 22:58N 33°21' W 118°20'0 0.0
2017-Oct-12 22:12N 33°21' W 118°20'0 0.0
2017-Oct-12 21:50N 33°21' W 118°20'0 0.0
2017-Oct-12 20:35N 33°21' W 118°20'0 0.0
2017-Oct-12 20:24N 33°21' W 118°20'0 0.0
2017-Oct-12 19:54N 33°21' W 118°20'0 0.0
2017-Oct-12 19:30N 33°21' W 118°20'1 0.6
2017-Oct-12 18:15N 33°21' W 118°19'621.9
2017-Oct-12 17:59N 33°22' W 118°12'1225.7
2017-Oct-12 17:31N 33°24' W 117°58'1325.9
2017-Oct-12 17:01N 33°27' W 117°42'1 0.1
2017-Oct-12 02:57N 33°28' W 117°42'0 0.0
2017-Oct-12 02:30N 33°28' W 117°42'0 0.0
2017-Oct-12 02:00N 33°28' W 117°42'1020.8
2017-Oct-12 01:31N 33°25' W 117°54'1426.7
2017-Oct-12 01:00N 33°22' W 118°09'816.6
2017-Oct-12 00:30N 33°21' W 118°19'1 1.6
2017-Oct-12 00:00N 33°21' W 118°20'0 0.0
2017-Oct-11 23:30N 33°21' W 118°20'0 0.0
2017-Oct-11 22:51N 33°21' W 118°20'0 0.1
2017-Oct-11 22:30N 33°21' W 118°20'0 0.0
2017-Oct-11 22:00N 33°21' W 118°20'0 0.0
2017-Oct-11 21:29N 33°21' W 118°20'0 0.0
2017-Oct-11 21:00N 33°21' W 118°20'0 0.0
2017-Oct-11 20:29N 33°21' W 118°20'0 0.0
2017-Oct-11 20:01N 33°21' W 118°20'0 0.0
2017-Oct-11 19:30N 33°21' W 118°20'0 0.1
2017-Oct-11 18:59N 33°21' W 118°20'1 1.4
2017-Oct-11 18:26N 33°21' W 118°19'2 5.4
2017-Oct-11 17:59N 33°21' W 118°17'1326.6
2017-Oct-11 17:30N 33°24' W 118°02'1326.4
2017-Oct-11 17:01N 33°26' W 117°46'28 1.7
2017-Oct-11 00:00N 33°21' W 118°19'1 1.2
2017-Oct-10 23:30N 33°21' W 118°20'0 0.0
2017-Oct-10 18:40N 33°21' W 118°20'1 3.9
2017-Oct-10 18:30N 33°21' W 118°19'2 4.4
2017-Oct-10 18:01N 33°21' W 118°17'1326.0
2017-Oct-10 17:31N 33°24' W 118°02'1325.9
2017-Oct-10 17:00N 33°26' W 117°46'4 8.4
2017-Oct-10 16:30N 33°28' W 117°42'0 0.0
2017-Oct-10 02:18N 33°28' W 117°42'2 6.2
2017-Oct-10 02:00N 33°27' W 117°43'1021.0
2017-Oct-10 01:31N 33°25' W 117°56'1325.5
2017-Oct-10 01:00N 33°22' W 118°11'714.6
2017-Oct-10 00:31N 33°21' W 118°19'1 1.1
2017-Oct-10 00:00N 33°21' W 118°19'1427.1
2017-Oct-09 23:31N 33°23' W 118°03'1426.9
2017-Oct-09 23:00N 33°26' W 117°47'5 9.5
2017-Oct-09 22:30N 33°28' W 117°42'0 0.0
2017-Oct-09 22:00N 33°28' W 117°42'0 0.0
2017-Oct-09 21:30N 33°28' W 117°42'0 0.0
2017-Oct-09 21:00N 33°28' W 117°42'0 0.0
2017-Oct-09 20:30N 33°28' W 117°42'2 3.7
2017-Oct-09 20:01N 33°27' W 117°44'1326.8
2017-Oct-09 19:31N 33°24' W 117°59'1426.7
2017-Oct-09 18:59N 33°21' W 118°16'3 5.4
2017-Oct-09 18:25N 33°21' W 118°19'3 6.4
2017-Oct-09 17:56N 33°21' W 118°16'1226.6
2017-Oct-09 17:30N 33°24' W 118°02'1326.7
2017-Oct-09 17:00N 33°26' W 117°47'4 8.9
2017-Oct-09 16:30N 33°28' W 117°42'0 0.0
2017-Oct-09 16:00N 33°28' W 117°42'0 0.1
2017-Oct-09 15:30N 33°28' W 117°41'0 0.1
2017-Oct-09 15:00N 33°28' W 117°42'0 0.0
2017-Oct-09 03:34N 33°28' W 117°42'0 0.0
2017-Oct-09 03:31N 33°28' W 117°42'0 0.9
2017-Oct-09 03:01N 33°27' W 117°41'1325.4
2017-Oct-09 02:31N 33°24' W 117°56'1326.8
2017-Oct-09 02:00N 33°22' W 118°12'  

Dump ship's entire track history